Time;durP1;ratioP1;P1;durP2;ratioP2;P2;SDS_P1;SDS_P2;PMS_P1;PMS_P2;Temp;Humidity;BMP_temperature;BMP_pressure;BME280_temperature;BME280_humidity;BME280_pressure;Samples;Min_cycle;Max_cycle;Signal;HPM_P1;HPM_P2
2021/09/08 00:00:43;;;;;;;;;;;22.60;90.20;22.50;99540.00;;;;405217;24;83493;-92
2021/09/08 00:02:13;;;;;;;;;;;22.60;90.60;22.50;99541.00;;;;406667;23;83194;-92
2021/09/08 03:52:55;;;;;;;;;;;20.80;93.70;20.90;99402.00;;;;353744;27;75035;-92
2021/09/08 03:53:07;;;;;;;;;;;20.80;93.70;21.00;99400.00;;;;352882;27;82377;-92
2021/09/08 03:53:19;;;;;;;;;;;20.80;93.70;21.00;99403.00;;;;348577;27;86976;-92
2021/09/08 03:53:30;;;;;;;;;;;20.80;93.70;21.00;99400.00;;;;349895;27;83519;-92
2021/09/08 03:53:42;;;;;;;;;;;20.80;93.70;20.90;99401.00;;;;347204;28;87744;-91
2021/09/08 03:53:58;;;;;;;;;;;20.80;93.70;20.90;99398.00;;;;348580;27;83379;-92
2021/09/08 03:54:10;;;;;;;;;;;20.80;93.70;20.90;99407.00;;;;348254;27;87991;-92
2021/09/08 03:54:22;;;;;;;;;;;20.80;93.70;21.00;99404.00;;;;348512;27;83518;-92
2021/09/08 03:54:34;;;;;;;;;;;20.80;93.70;20.90;99400.00;;;;347190;28;87437;-92
2021/09/08 03:54:46;;;;;;;;;;;20.80;93.70;20.90;99397.00;;;;345855;28;82531;-92
2021/09/08 03:54:58;;;;;;;;;;;20.80;93.70;20.90;99402.00;;;;347225;28;87055;-92
2021/09/08 03:55:10;;;;;;;;;;;20.80;93.60;20.90;99397.00;;;;347320;28;82471;-92
2021/09/08 03:55:22;;;;;;;;;;;20.80;93.70;20.90;99396.00;;;;348588;27;87929;-92
2021/09/08 03:55:34;;;;;;;;;;;20.80;93.70;21.00;99400.00;;;;347249;28;83406;-92
2021/09/08 03:55:46;;;;;;;;;;;20.80;93.70;21.00;99402.00;;;;348624;27;86217;-92
2021/09/08 03:55:58;;;;;;;;;;;20.80;93.70;21.00;99399.00;;;;348655;27;83336;-92
2021/09/08 03:56:09;;;;;;;;;;;20.80;93.70;21.00;99396.00;;;;345758;28;87470;-92
2021/09/08 03:56:21;;;;;;;;;;;20.80;93.70;20.90;99397.00;;;;347309;28;82514;-93
2021/09/08 03:56:33;;;;;;;;;;;20.80;93.70;21.00;99398.00;;;;348603;27;87376;-92
2021/09/08 03:56:45;;;;;;;;;;;20.80;93.70;20.90;99402.00;;;;347173;28;82459;-92
2021/09/08 03:56:57;;;;;;;;;;;20.80;93.70;20.90;99404.00;;;;347176;27;87153;-92
2021/09/08 03:57:08;;;;;;;;;;;20.80;93.60;20.90;99397.00;;;;345882;28;82441;-92
2021/09/08 03:57:20;;;;;;;;;;;20.80;93.60;20.90;99402.00;;;;347258;28;87314;-92
2021/09/08 03:57:32;;;;;;;;;;;20.80;93.60;21.00;99399.00;;;;348330;27;83448;-92
2021/09/08 03:57:44;;;;;;;;;;;20.80;93.70;20.90;99398.00;;;;347240;28;86261;-91
2021/09/08 03:57:56;;;;;;;;;;;20.80;93.60;20.90;99400.00;;;;347306;28;83322;-91
2021/09/08 03:58:08;;;;;;;;;;;20.80;93.70;20.80;99402.00;;;;345670;28;87376;-92
2021/09/08 03:58:19;;;;;;;;;;;20.80;93.70;20.90;99400.00;;;;347273;28;83294;-92
2021/09/08 03:58:31;;;;;;;;;;;20.80;93.70;20.90;99394.00;;;;348645;27;87574;-92
2021/09/08 03:58:43;;;;;;;;;;;20.80;93.60;20.90;99394.00;;;;346835;28;83605;-92
2021/09/08 03:58:55;;;;;;;;;;;20.80;93.70;20.90;99395.00;;;;348685;27;87791;-92
2021/09/08 03:59:07;;;;;;;;;;;20.80;93.60;20.90;99395.00;;;;347305;28;82482;-92
2021/09/08 03:59:21;;;;;;;;;;;20.80;93.60;21.00;99394.00;;;;348411;27;85416;-92
2021/09/08 03:59:35;;;;;;;;;;;20.80;93.60;21.00;99396.00;;;;348645;27;82637;-92
2021/09/08 03:59:47;;;;;;;;;;;20.80;93.50;21.00;99395.00;;;;350024;27;87448;-92
2021/09/08 03:59:59;;;;;;;;;;;20.90;93.50;21.00;99396.00;;;;346870;28;83549;-92
2021/09/08 04:00:11;;;;;;;;;;;20.80;93.50;21.00;99395.00;;;;347159;28;86159;-92
2021/09/08 04:00:23;;;;;;;;;;;20.90;93.50;21.00;99398.00;;;;348616;27;83471;-92
2021/09/08 04:00:35;;;;;;;;;;;20.90;93.50;21.00;99399.00;;;;347232;28;86170;-93
2021/09/08 04:00:47;;;;;;;;;;;20.80;93.50;21.00;99394.00;;;;345796;28;82572;-93
2021/09/08 04:00:59;;;;;;;;;;;20.90;93.50;20.90;99392.00;;;;347681;27;86318;-93
2021/09/08 04:01:12;;;;;;;;;;;20.80;93.50;20.90;99391.00;;;;348585;27;82517;-92
2021/09/08 04:01:24;;;;;;;;;;;20.80;93.50;20.90;99394.00;;;;347165;28;86758;-93
2021/09/08 04:01:36;;;;;;;;;;;20.80;93.50;21.00;99391.00;;;;348578;27;83487;-92
2021/09/08 04:01:49;;;;;;;;;;;20.90;93.60;20.90;99398.00;;;;348610;27;87741;-92
2021/09/08 04:02:01;;;;;;;;;;;20.90;93.50;21.00;99396.00;;;;348740;27;83455;-92
2021/09/08 04:02:13;;;;;;;;;;;20.80;93.50;21.00;99390.00;;;;346942;28;85368;-93
2021/09/08 04:02:25;;;;;;;;;;;20.90;93.50;21.00;99394.00;;;;347256;28;83447;-92
2021/09/08 04:02:37;;;;;;;;;;;20.90;93.60;21.00;99390.00;;;;345632;28;86332;-92
2021/09/08 04:02:50;;;;;;;;;;;20.80;93.50;20.90;99399.00;;;;347193;27;82515;-93
2021/09/08 04:03:02;;;;;;;;;;;20.80;93.50;20.90;99384.00;;;;347237;28;87716;-92
2021/09/08 04:03:14;;;;;;;;;;;20.90;93.50;20.90;99395.00;;;;345844;28;82385;-93
2021/09/08 04:03:26;;;;;;;;;;;20.80;93.50;20.90;99399.00;;;;347199;28;87421;-92
2021/09/08 04:03:38;;;;;;;;;;;20.80;93.40;20.90;99399.00;;;;345761;28;83576;-93
2021/09/08 04:03:50;;;;;;;;;;;20.80;93.40;20.90;99394.00;;;;348411;27;86409;-93
2021/09/08 04:04:02;;;;;;;;;;;20.80;93.40;20.90;99398.00;;;;347254;28;83349;-93
2021/09/08 04:04:14;;;;;;;;;;;20.80;93.50;20.90;99394.00;;;;347106;28;87363;-92
2021/09/08 04:04:26;;;;;;;;;;;20.80;93.50;20.90;99398.00;;;;345941;28;82437;-91
2021/09/08 04:04:39;;;;;;;;;;;20.80;93.50;20.90;99397.00;;;;348525;27;87376;-93
2021/09/08 04:04:50;;;;;;;;;;;20.80;93.50;20.90;99389.00;;;;347219;28;82549;-93
2021/09/08 04:05:03;;;;;;;;;;;20.80;93.50;20.90;99387.00;;;;347204;28;87008;-93
2021/09/08 04:05:15;;;;;;;;;;;20.80;93.50;20.90;99395.00;;;;347198;28;83397;-93
2021/09/08 04:05:27;;;;;;;;;;;20.80;93.50;20.90;99392.00;;;;347203;28;86275;-92
2021/09/08 04:05:39;;;;;;;;;;;20.80;93.50;20.90;99399.00;;;;348590;27;83515;-92
2021/09/08 04:05:51;;;;;;;;;;;20.80;93.50;20.80;99395.00;;;;348567;27;87423;-93
2021/09/08 04:06:02;;;;;;;;;;;20.80;93.50;20.80;99396.00;;;;347176;28;83932;-92
2021/09/08 04:06:14;;;;;;;;;;;20.80;93.50;20.80;99389.00;;;;347167;28;87819;-92
2021/09/08 04:06:26;;;;;;;;;;;20.80;93.50;20.80;99394.00;;;;345886;28;82525;-92
2021/09/08 04:06:38;;;;;;;;;;;20.80;93.50;20.80;99393.00;;;;348542;27;87485;-92
2021/09/08 04:06:54;;;;;;;;;;;20.80;93.50;20.90;99392.00;;;;347184;28;83319;-92
2021/09/08 04:07:14;;;;;;;;;;;20.80;93.50;20.80;99389.00;;;;345860;28;87592;-93
2021/09/08 04:07:26;;;;;;;;;;;20.80;93.50;20.90;99392.00;;;;348680;27;83242;-93
2021/09/08 04:07:39;;;;;;;;;;;20.80;93.50;20.90;99392.00;;;;347247;28;85898;-92
2021/09/08 04:07:50;;;;;;;;;;;20.80;93.50;20.90;99390.00;;;;347402;28;82442;-93
2021/09/08 04:08:02;;;;;;;;;;;20.80;93.50;20.90;99394.00;;;;345685;28;85704;-92
2021/09/08 04:08:14;;;;;;;;;;;20.80;93.60;20.90;99385.00;;;;347100;28;83498;-93
2021/09/08 04:08:26;;;;;;;;;;;20.80;93.60;20.90;99395.00;;;;347208;28;86068;-93
2021/09/08 04:08:38;;;;;;;;;;;20.80;93.60;21.00;99394.00;;;;348453;27;83564;-92
2021/09/08 04:08:50;;;;;;;;;;;20.80;93.60;20.90;99383.00;;;;348601;27;85690;-92
2021/09/08 04:09:02;;;;;;;;;;;20.80;93.50;20.90;99396.00;;;;347013;28;83643;-92
2021/09/08 04:09:14;;;;;;;;;;;20.80;93.50;20.90;99390.00;;;;351496;27;86513;-91
2021/09/08 04:09:25;;;;;;;;;;;20.80;93.50;20.90;99396.00;;;;347234;28;83432;-92
2021/09/08 04:09:37;;;;;;;;;;;20.80;93.50;20.90;99396.00;;;;347194;28;86727;-93
2021/09/08 04:09:49;;;;;;;;;;;20.80;93.50;20.80;99390.00;;;;348662;27;83256;-92
2021/09/08 04:10:01;;;;;;;;;;;20.80;93.50;20.90;99391.00;;;;347138;28;88012;-92
2021/09/08 04:10:12;;;;;;;;;;;20.80;93.50;20.90;99396.00;;;;345795;28;83526;-92
2021/09/08 04:10:24;;;;;;;;;;;20.80;93.50;20.90;99394.00;;;;347290;28;84701;-92
2021/09/08 04:10:36;;;;;;;;;;;20.80;93.50;20.90;99393.00;;;;350098;27;82447;-92
2021/09/08 04:10:48;;;;;;;;;;;20.80;93.50;20.90;99394.00;;;;348573;27;87463;-93
2021/09/08 04:11:00;;;;;;;;;;;20.80;93.50;20.90;99395.00;;;;348603;27;82571;-92
2021/09/08 04:11:11;;;;;;;;;;;20.80;93.50;20.90;99401.00;;;;345791;28;88034;-92
2021/09/08 04:11:23;;;;;;;;;;;20.80;93.50;20.80;99390.00;;;;349832;27;83445;-92
2021/09/08 04:11:35;;;;;;;;;;;20.80;93.50;20.80;99395.00;;;;347209;28;86645;-91
2021/09/08 04:11:47;;;;;;;;;;;20.80;93.50;20.90;99400.00;;;;347261;28;83462;-92
2021/09/08 04:11:59;;;;;;;;;;;20.80;93.50;20.80;99385.00;;;;348612;27;85940;-93
2021/09/08 04:12:11;;;;;;;;;;;20.80;93.50;20.80;99393.00;;;;347174;28;82509;-92
2021/09/08 04:12:23;;;;;;;;;;;20.80;93.50;20.90;99390.00;;;;349980;27;87388;-92
2021/09/08 04:12:34;;;;;;;;;;;20.80;93.50;20.90;99395.00;;;;347264;28;82530;-93
2021/09/08 04:12:46;;;;;;;;;;;20.80;93.50;20.80;99388.00;;;;348506;27;87496;-93
2021/09/08 04:12:58;;;;;;;;;;;20.80;93.50;20.80;99399.00;;;;349969;27;82555;-93
2021/09/08 04:13:10;;;;;;;;;;;20.80;93.40;20.80;99393.00;;;;348597;27;85977;-92
2021/09/08 04:13:21;;;;;;;;;;;20.80;93.40;20.90;99391.00;;;;347365;28;82413;-92
2021/09/08 04:13:36;;;;;;;;;;;20.80;93.40;20.90;99390.00;;;;348554;27;86763;-92
2021/09/08 04:13:47;;;;;;;;;;;20.80;93.50;20.90;99391.00;;;;348339;27;83620;-92
2021/09/08 04:13:59;;;;;;;;;;;20.80;93.50;20.90;99394.00;;;;348518;27;86610;-93
2021/09/08 04:14:11;;;;;;;;;;;20.80;93.50;20.80;99394.00;;;;347086;28;83418;-92
2021/09/08 04:14:23;;;;;;;;;;;20.80;93.50;20.90;99397.00;;;;344274;28;87453;-93
2021/09/08 04:14:35;;;;;;;;;;;20.70;93.50;20.90;99386.00;;;;344543;28;83350;-92
2021/09/08 04:14:46;;;;;;;;;;;20.80;93.50;20.80;99399.00;;;;348503;27;87734;-92
2021/09/08 04:14:58;;;;;;;;;;;20.80;93.50;20.80;99391.00;;;;347034;28;83613;-93
2021/09/08 04:15:10;;;;;;;;;;;20.80;93.50;20.80;99392.00;;;;347141;28;87291;-92
2021/09/08 04:15:22;;;;;;;;;;;20.80;93.50;20.80;99396.00;;;;345936;28;82555;-93
2021/09/08 04:15:34;;;;;;;;;;;20.80;93.50;20.80;99392.00;;;;348182;27;86851;-92
2021/09/08 04:15:46;;;;;;;;;;;20.80;93.50;20.80;99396.00;;;;344519;28;82497;-92
2021/09/08 04:15:58;;;;;;;;;;;20.80;93.50;20.70;99392.00;;;;347073;28;87247;-92
2021/09/08 04:16:10;;;;;;;;;;;20.80;93.50;20.70;99395.00;;;;347099;28;82633;-93
2021/09/08 04:16:22;;;;;;;;;;;20.70;93.50;20.80;99392.00;;;;347050;28;88017;-91
2021/09/08 04:16:33;;;;;;;;;;;20.70;93.50;20.80;99399.00;;;;347149;28;83396;-92
2021/09/08 04:16:45;;;;;;;;;;;20.70;93.50;20.80;99396.00;;;;348437;27;87668;-92
2021/09/08 04:16:57;;;;;;;;;;;20.80;93.60;20.80;99401.00;;;;347311;28;83264;-92
2021/09/08 04:17:09;;;;;;;;;;;20.70;93.60;20.80;99398.00;;;;345782;28;87111;-92
2021/09/08 04:17:21;;;;;;;;;;;20.80;93.60;20.80;99399.00;;;;345894;28;83375;-92
2021/09/08 04:17:33;;;;;;;;;;;20.80;93.60;20.80;99394.00;;;;345792;28;86243;-92
2021/09/08 04:17:45;;;;;;;;;;;20.70;93.60;20.80;99398.00;;;;347195;28;83291;-92
2021/09/08 04:17:58;;;;;;;;;;;20.70;93.60;20.80;99398.00;;;;346876;28;87740;-92
2021/09/08 04:18:10;;;;;;;;;;;20.70;93.60;20.80;99402.00;;;;345560;28;83504;-92
2021/09/08 04:18:22;;;;;;;;;;;20.70;93.60;20.70;99397.00;;;;345739;28;86874;-92
2021/09/08 04:18:33;;;;;;;;;;;20.70;93.60;20.70;99399.00;;;;348384;27;83549;-93
2021/09/08 04:18:48;;;;;;;;;;;20.70;93.60;20.80;99387.00;;;;348426;27;86143;-92
2021/09/08 04:18:59;;;;;;;;;;;20.70;93.60;20.80;99399.00;;;;349663;27;83585;-92
2021/09/08 04:19:11;;;;;;;;;;;20.70;93.60;20.70;99403.00;;;;348476;27;87100;-93
2021/09/08 04:19:23;;;;;;;;;;;20.70;93.60;20.80;99398.00;;;;347154;28;83279;-92
2021/09/08 04:19:35;;;;;;;;;;;20.70;93.60;20.70;99389.00;;;;348541;27;87224;-92
2021/09/08 04:19:47;;;;;;;;;;;20.70;93.60;20.70;99394.00;;;;345839;28;83418;-92
2021/09/08 04:19:58;;;;;;;;;;;20.70;93.60;20.70;99390.00;;;;345749;28;86070;-92
2021/09/08 04:20:11;;;;;;;;;;;20.70;93.60;20.70;99389.00;;;;348581;27;82556;-92
2021/09/08 04:20:23;;;;;;;;;;;20.70;93.60;20.80;99398.00;;;;348547;27;86702;-92
2021/09/08 04:20:34;;;;;;;;;;;20.70;93.60;20.80;99394.00;;;;347217;28;83387;-92
2021/09/08 04:20:46;;;;;;;;;;;20.70;93.60;20.80;99398.00;;;;347044;28;86387;-93
2021/09/08 04:20:58;;;;;;;;;;;20.70;93.60;20.70;99393.00;;;;348683;27;82428;-92
2021/09/08 04:21:10;;;;;;;;;;;20.70;93.60;20.70;99398.00;;;;348283;27;86163;-93
2021/09/08 04:21:22;;;;;;;;;;;20.70;93.70;20.90;99401.00;;;;347198;28;83362;-92
2021/09/08 04:21:34;;;;;;;;;;;20.70;93.60;20.90;99402.00;;;;347016;28;87299;-92
2021/09/08 04:21:45;;;;;;;;;;;20.70;93.60;20.90;99396.00;;;;347200;28;83350;-92
2021/09/08 04:21:57;;;;;;;;;;;20.70;93.60;20.80;99396.00;;;;348591;27;86599;-93
2021/09/08 04:22:09;;;;;;;;;;;20.70;93.60;20.80;99387.00;;;;347157;28;83412;-93
2021/09/08 04:22:21;;;;;;;;;;;20.70;93.60;20.80;99390.00;;;;345694;28;87954;-92
2021/09/08 04:22:32;;;;;;;;;;;20.70;93.60;20.70;99391.00;;;;347111;28;83383;-92
2021/09/08 04:22:44;;;;;;;;;;;20.70;93.60;20.70;99390.00;;;;348503;27;86588;-92
2021/09/08 04:22:56;;;;;;;;;;;20.70;93.60;20.80;99384.00;;;;347168;28;83491;-93
2021/09/08 04:23:08;;;;;;;;;;;20.70;93.60;20.70;99388.00;;;;349957;27;86297;-93
2021/09/08 04:23:20;;;;;;;;;;;20.70;93.60;20.70;99382.00;;;;348663;27;83320;-92
2021/09/08 04:23:32;;;;;;;;;;;20.70;93.70;20.70;99393.00;;;;347115;28;86117;-92
2021/09/08 04:23:43;;;;;;;;;;;20.70;93.70;20.70;99391.00;;;;348584;27;82483;-93
2021/09/08 04:23:55;;;;;;;;;;;20.70;93.70;20.80;99395.00;;;;347021;28;88356;-92
2021/09/08 04:24:07;;;;;;;;;;;20.70;93.70;20.70;99394.00;;;;347254;28;83396;-92
2021/09/08 04:24:19;;;;;;;;;;;20.70;93.70;20.80;99393.00;;;;347143;28;86402;-92
2021/09/08 04:24:31;;;;;;;;;;;20.70;93.70;20.90;99390.00;;;;348548;27;83379;-92
2021/09/08 04:24:43;;;;;;;;;;;20.70;93.70;20.80;99390.00;;;;346869;28;87954;-91
2021/09/08 04:24:55;;;;;;;;;;;20.70;93.60;20.80;99396.00;;;;347162;28;83396;-92
2021/09/08 04:25:11;;;;;;;;;;;20.70;93.60;20.80;99393.00;;;;348349;27;86597;-92
2021/09/08 04:25:23;;;;;;;;;;;20.70;93.70;20.80;99398.00;;;;348691;27;83279;-92
2021/09/08 04:25:35;;;;;;;;;;;20.60;93.70;20.90;99392.00;;;;349956;27;86922;-91
2021/09/08 04:25:47;;;;;;;;;;;20.60;93.70;20.80;99397.00;;;;348704;27;82384;-92
2021/09/08 04:25:58;;;;;;;;;;;20.70;93.70;20.80;99388.00;;;;347043;28;87117;-92
2021/09/08 04:26:10;;;;;;;;;;;20.70;93.70;20.70;99393.00;;;;348543;27;82561;-92
2021/09/08 04:26:22;;;;;;;;;;;20.70;93.70;20.70;99394.00;;;;348611;27;86068;-92
2021/09/08 04:26:34;;;;;;;;;;;20.70;93.70;20.70;99382.00;;;;347302;28;82260;-91
2021/09/08 04:26:46;;;;;;;;;;;20.70;93.60;20.70;99391.00;;;;349965;27;83819;-92
2021/09/08 04:26:58;;;;;;;;;;;20.70;93.60;20.70;99387.00;;;;347145;28;83501;-91
2021/09/08 04:27:10;;;;;;;;;;;20.70;93.60;20.70;99397.00;;;;347057;28;87835;-92
2021/09/08 04:27:22;;;;;;;;;;;20.70;93.60;20.70;99385.00;;;;350020;27;83455;-92
2021/09/08 04:27:33;;;;;;;;;;;20.70;93.60;20.70;99391.00;;;;348394;27;89524;-92
2021/09/08 04:27:45;;;;;;;;;;;20.70;93.60;20.70;99385.00;;;;345897;28;83482;-92
2021/09/08 04:27:57;;;;;;;;;;;20.70;93.60;20.70;99395.00;;;;348477;27;86034;-91
2021/09/08 04:28:09;;;;;;;;;;;20.70;93.60;20.70;99393.00;;;;347235;28;83375;-92
2021/09/08 04:28:21;;;;;;;;;;;20.60;93.60;20.70;99386.00;;;;346948;28;87453;-93
2021/09/08 04:28:33;;;;;;;;;;;20.70;93.70;20.70;99399.00;;;;348654;27;83388;-91
2021/09/08 04:28:44;;;;;;;;;;;20.60;93.60;20.70;99391.00;;;;347102;28;86470;-92
2021/09/08 04:28:56;;;;;;;;;;;20.70;93.60;20.80;99395.00;;;;347211;28;82519;-92
2021/09/08 04:29:08;;;;;;;;;;;20.70;93.60;20.80;99389.00;;;;347083;28;88106;-91
2021/09/08 04:29:20;;;;;;;;;;;20.70;93.60;20.70;99390.00;;;;347182;28;82509;-92
2021/09/08 04:29:32;;;;;;;;;;;20.70;93.60;20.70;99384.00;;;;347168;28;86052;-92
2021/09/08 04:29:44;;;;;;;;;;;20.60;93.90;20.70;99390.00;;;;348610;27;83472;-92
2021/09/08 04:29:56;;;;;;;;;;;20.60;93.60;20.80;99385.00;;;;348502;27;86775;-92
2021/09/08 04:30:08;;;;;;;;;;;20.60;93.60;20.70;99383.00;;;;350029;27;82519;-92
2021/09/08 04:30:20;;;;;;;;;;;20.60;93.60;20.70;99383.00;;;;347040;28;86055;-92
2021/09/08 04:30:32;;;;;;;;;;;20.60;93.60;20.80;99393.00;;;;349618;27;82589;-92
2021/09/08 04:30:43;;;;;;;;;;;20.60;93.60;20.70;99386.00;;;;349879;27;87074;-92
2021/09/08 04:30:55;;;;;;;;;;;20.60;93.60;20.70;99389.00;;;;348554;27;83433;-92
2021/09/08 04:31:07;;;;;;;;;;;20.60;93.60;20.60;99385.00;;;;348527;27;86384;-92
2021/09/08 04:31:19;;;;;;;;;;;20.60;93.60;20.60;99387.00;;;;347193;28;82583;-92
2021/09/08 04:31:31;;;;;;;;;;;20.60;93.60;20.60;99393.00;;;;348537;27;86516;-92
2021/09/08 04:31:44;;;;;;;;;;;20.60;93.60;20.60;99387.00;;;;347200;28;82487;-92
2021/09/08 04:31:56;;;;;;;;;;;20.60;93.60;20.70;99395.00;;;;345785;28;85933;-93
2021/09/08 04:32:07;;;;;;;;;;;20.60;93.60;20.80;99388.00;;;;347169;28;83476;-92
2021/09/08 04:32:19;;;;;;;;;;;20.60;93.60;20.70;99393.00;;;;348447;27;87560;-92
2021/09/08 04:32:31;;;;;;;;;;;20.60;93.50;20.60;99391.00;;;;347165;28;83415;-91
2021/09/08 04:32:43;;;;;;;;;;;20.60;93.60;20.70;99403.00;;;;349919;27;85842;-92
2021/09/08 04:32:55;;;;;;;;;;;20.60;93.60;20.70;99393.00;;;;347181;28;82532;-92
2021/09/08 04:33:06;;;;;;;;;;;20.60;93.60;20.70;99394.00;;;;347969;27;86022;-92
2021/09/08 04:33:18;;;;;;;;;;;20.60;93.60;20.70;99399.00;;;;348635;27;82525;-91
2021/09/08 04:33:30;;;;;;;;;;;20.60;93.60;20.70;99391.00;;;;349931;27;86574;-91
2021/09/08 04:33:42;;;;;;;;;;;20.60;93.60;20.70;99392.00;;;;347254;28;83332;-92
2021/09/08 04:33:54;;;;;;;;;;;20.60;93.60;20.60;99386.00;;;;348557;27;87731;-92
2021/09/08 04:34:06;;;;;;;;;;;20.60;93.50;20.70;99390.00;;;;349927;27;83338;-92
2021/09/08 04:34:18;;;;;;;;;;;20.60;93.50;20.60;99385.00;;;;347150;28;85095;-92
2021/09/08 04:34:30;;;;;;;;;;;20.60;93.50;20.60;99383.00;;;;347341;28;83357;-92
2021/09/08 04:34:42;;;;;;;;;;;20.60;93.50;20.70;99388.00;;;;351271;27;86278;-91
2021/09/08 04:34:54;;;;;;;;;;;20.60;93.50;20.70;99391.00;;;;350064;27;83415;-92
2021/09/08 04:35:06;;;;;;;;;;;20.60;93.60;20.80;99399.00;;;;348522;27;87815;-92
2021/09/08 04:35:19;;;;;;;;;;;20.60;93.70;20.70;99392.00;;;;345855;28;83416;-92
2021/09/08 04:35:30;;;;;;;;;;;20.60;93.60;20.70;99394.00;;;;347082;28;86779;-92
2021/09/08 04:35:42;;;;;;;;;;;20.60;93.70;20.60;99385.00;;;;348627;27;83799;-92
2021/09/08 04:35:56;;;;;;;;;;;20.60;93.60;20.60;99389.00;;;;347022;28;87428;-92
2021/09/08 04:36:11;;;;;;;;;;;20.60;93.60;20.60;99385.00;;;;348360;27;82502;-92
2021/09/08 04:36:23;;;;;;;;;;;20.60;93.60;20.60;99386.00;;;;348549;27;86717;-92
2021/09/08 04:36:35;;;;;;;;;;;20.60;93.60;20.60;99398.00;;;;350101;27;83390;-91
2021/09/08 04:36:46;;;;;;;;;;;20.50;93.60;20.70;99391.00;;;;349977;27;84553;-92
2021/09/08 04:36:58;;;;;;;;;;;20.60;93.90;20.60;99391.00;;;;347202;28;82558;-92
2021/09/08 04:37:10;;;;;;;;;;;20.50;93.60;20.60;99391.00;;;;349987;27;86722;-92
2021/09/08 04:37:22;;;;;;;;;;;20.60;93.60;20.50;99382.00;;;;348610;27;82492;-90
2021/09/08 04:37:34;;;;;;;;;;;20.60;93.60;20.60;99384.00;;;;347116;28;86721;-92
2021/09/08 04:37:46;;;;;;;;;;;20.50;93.60;20.60;99389.00;;;;349927;27;83935;-92
2021/09/08 04:37:58;;;;;;;;;;;20.50;93.60;20.60;99384.00;;;;349907;27;86109;-92
2021/09/08 04:38:09;;;;;;;;;;;20.50;93.60;20.60;99390.00;;;;348498;27;83435;-92
2021/09/08 04:38:21;;;;;;;;;;;20.50;93.60;20.60;99389.00;;;;345761;28;86331;-92
2021/09/08 04:38:33;;;;;;;;;;;20.50;93.60;20.60;99387.00;;;;347309;28;83368;-91
2021/09/08 04:38:45;;;;;;;;;;;20.50;93.60;20.60;99383.00;;;;349877;27;86620;-92
2021/09/08 04:38:57;;;;;;;;;;;20.50;93.60;20.60;99382.00;;;;347229;28;83416;-92
2021/09/08 04:39:09;;;;;;;;;;;20.50;93.60;20.50;99383.00;;;;347141;28;86462;-92
2021/09/08 04:39:20;;;;;;;;;;;20.50;93.60;20.50;99389.00;;;;347276;28;82518;-92
2021/09/08 04:39:32;;;;;;;;;;;20.50;93.70;20.50;99395.00;;;;345700;28;87277;-92
2021/09/08 04:39:44;;;;;;;;;;;20.50;93.60;20.50;99383.00;;;;347270;28;82463;-92
2021/09/08 04:39:56;;;;;;;;;;;20.50;93.60;20.60;99374.00;;;;347161;28;83834;-92
2021/09/08 04:40:08;;;;;;;;;;;20.50;93.70;20.50;99389.00;;;;348489;27;82560;-92
2021/09/08 04:40:20;;;;;;;;;;;20.50;93.70;20.60;99383.00;;;;347158;27;86253;-91
2021/09/08 04:40:32;;;;;;;;;;;20.50;93.70;20.60;99388.00;;;;350045;27;82473;-92
2021/09/08 04:40:45;;;;;;;;;;;20.50;93.70;20.60;99385.00;;;;347098;28;86420;-92
2021/09/08 04:40:57;;;;;;;;;;;20.50;93.60;20.60;99387.00;;;;347193;28;83407;-92
2021/09/08 04:41:08;;;;;;;;;;;20.50;93.60;20.60;99388.00;;;;346906;28;86460;-92
2021/09/08 04:41:20;;;;;;;;;;;20.50;93.60;20.60;99383.00;;;;348622;27;83456;-91
2021/09/08 04:41:32;;;;;;;;;;;20.50;93.50;20.60;99393.00;;;;346956;28;85585;-92
2021/09/08 04:41:44;;;;;;;;;;;20.50;93.50;20.60;99375.00;;;;347393;28;82578;-91
2021/09/08 04:41:56;;;;;;;;;;;20.50;93.50;20.60;99380.00;;;;347157;28;85666;-92
2021/09/08 04:42:08;;;;;;;;;;;20.50;93.50;20.70;99382.00;;;;344347;28;82514;-92
2021/09/08 04:42:19;;;;;;;;;;;20.50;93.50;20.60;99385.00;;;;347119;28;87596;-92
2021/09/08 04:42:31;;;;;;;;;;;20.50;93.50;20.60;99391.00;;;;347113;28;83459;-92
2021/09/08 04:42:43;;;;;;;;;;;20.50;93.50;20.70;99384.00;;;;346998;28;87671;-92
2021/09/08 04:42:55;;;;;;;;;;;20.50;93.50;20.60;99384.00;;;;348628;27;82497;-92
2021/09/08 04:43:07;;;;;;;;;;;20.50;93.60;20.60;99390.00;;;;348436;27;85675;-92
2021/09/08 04:43:18;;;;;;;;;;;20.50;93.40;20.60;99381.00;;;;345933;28;82395;-92
2021/09/08 04:43:30;;;;;;;;;;;20.50;93.40;20.60;99386.00;;;;345625;28;87420;-92
2021/09/08 04:43:42;;;;;;;;;;;20.50;93.40;20.60;99385.00;;;;345842;28;83342;-92
2021/09/08 04:43:55;;;;;;;;;;;20.50;93.40;20.60;99386.00;;;;344375;28;86185;-91
2021/09/08 04:44:06;;;;;;;;;;;20.50;93.50;20.60;99386.00;;;;347165;28;83279;-91
2021/09/08 04:44:18;;;;;;;;;;;20.50;93.50;20.60;99375.00;;;;345721;28;87329;-92
2021/09/08 04:44:30;;;;;;;;;;;20.50;93.40;20.50;99387.00;;;;346999;28;83625;-92
2021/09/08 04:44:42;;;;;;;;;;;20.50;93.40;20.50;99382.00;;;;347115;28;87415;-92
2021/09/08 04:44:54;;;;;;;;;;;20.50;93.40;20.60;99385.00;;;;345842;28;84273;-92
2021/09/08 04:45:06;;;;;;;;;;;20.50;93.40;20.70;99380.00;;;;345823;28;86382;-92
2021/09/08 04:45:18;;;;;;;;;;;20.50;93.40;20.60;99382.00;;;;344518;28;82566;-92
2021/09/08 04:45:30;;;;;;;;;;;20.50;93.40;20.60;99388.00;;;;347072;28;85000;-90
2021/09/08 04:45:42;;;;;;;;;;;20.50;93.40;20.60;99380.00;;;;347369;28;83420;-94
2021/09/08 04:45:55;;;;;;;;;;;20.50;93.30;20.60;99375.00;;;;348516;27;86246;-92
2021/09/08 04:46:07;;;;;;;;;;;20.50;93.40;20.60;99373.00;;;;348742;27;82479;-94
2021/09/08 04:46:19;;;;;;;;;;;20.50;93.40;20.50;99377.00;;;;348830;27;87428;-93
2021/09/08 04:46:31;;;;;;;;;;;20.50;93.40;20.60;99372.00;;;;348849;27;83424;-94
2021/09/08 04:46:43;;;;;;;;;;;20.50;93.40;20.60;99378.00;;;;348772;27;86236;-94
2021/09/08 04:46:54;;;;;;;;;;;20.50;93.40;20.50;99380.00;;;;348818;27;83149;-93
2021/09/08 04:47:08;;;;;;;;;;;20.50;93.40;20.50;99378.00;;;;347298;28;87495;-93
2021/09/08 04:47:20;;;;;;;;;;;20.50;93.40;20.60;99382.00;;;;347481;28;83378;-93
2021/09/08 04:47:32;;;;;;;;;;;20.50;93.40;20.60;99378.00;;;;345781;28;87806;-93
2021/09/08 04:47:43;;;;;;;;;;;20.50;93.40;20.60;99377.00;;;;350456;27;82495;-95
2021/09/08 04:47:55;;;;;;;;;;;20.50;93.40;20.60;99380.00;;;;348670;27;85399;-94
2021/09/08 04:48:07;;;;;;;;;;;20.50;93.40;20.60;99385.00;;;;349531;27;82454;-94
2021/09/08 04:48:19;;;;;;;;;;;20.40;93.40;20.60;99372.00;;;;350076;27;85346;-94
2021/09/08 04:48:31;;;;;;;;;;;20.50;93.40;20.50;99383.00;;;;349152;27;82559;-94
2021/09/08 04:48:43;;;;;;;;;;;20.40;93.40;20.60;99378.00;;;;348963;27;85931;-95
2021/09/08 04:48:55;;;;;;;;;;;20.50;93.40;20.60;99367.00;;;;350190;27;83501;-94
2021/09/08 04:49:07;;;;;;;;;;;20.50;93.40;20.60;99370.00;;;;347801;28;86956;-93
2021/09/08 04:49:20;;;;;;;;;;;20.50;93.40;20.60;99375.00;;;;349195;27;82427;-93
2021/09/08 04:49:32;;;;;;;;;;;20.50;93.40;20.50;99368.00;;;;350331;27;86230;-95
2021/09/08 04:49:43;;;;;;;;;;;20.50;93.40;20.60;99372.00;;;;351587;27;82573;-94
2021/09/08 04:49:55;;;;;;;;;;;20.50;93.40;20.60;99376.00;;;;346032;28;87580;-95
2021/09/08 04:50:07;;;;;;;;;;;20.50;93.40;20.60;99374.00;;;;348848;27;82530;-94
2021/09/08 04:50:19;;;;;;;;;;;20.50;93.40;20.60;99369.00;;;;348920;27;86402;-94
2021/09/08 04:50:31;;;;;;;;;;;20.50;93.30;20.60;99376.00;;;;348702;27;82566;-94
2021/09/08 04:50:43;;;;;;;;;;;20.50;93.20;20.60;99377.00;;;;349899;27;85748;-96
2021/09/08 04:50:55;;;;;;;;;;;20.50;93.20;20.60;99378.00;;;;346055;28;82503;-95
2021/09/08 04:51:07;;;;;;;;;;;20.50;93.20;20.60;99372.00;;;;350320;27;87397;-95
2021/09/08 04:51:19;;;;;;;;;;;20.50;93.20;20.60;99382.00;;;;350372;27;83492;-94
2021/09/08 04:51:31;;;;;;;;;;;20.50;93.20;20.60;99382.00;;;;347354;28;86377;-96
2021/09/08 04:51:42;;;;;;;;;;;20.50;93.20;20.60;99384.00;;;;347325;28;82497;-95
2021/09/08 04:51:54;;;;;;;;;;;20.50;93.20;20.50;99381.00;;;;347528;28;86775;-95